createdAt,value
2022-11-30T00:01:23.070Z,39.63
2022-11-30T00:03:54.923Z,39.63
2022-11-30T00:06:25.118Z,29.50
2022-11-30T00:08:56.957Z,42.20
2022-11-30T00:11:26.813Z,39.00
2022-11-30T00:13:54.032Z,38.70
2022-11-30T00:16:21.233Z,43.20
2022-11-30T00:18:48.212Z,33.53
2022-11-30T00:21:15.799Z,32.97
2022-11-30T00:23:45.043Z,34.60
2022-11-30T00:26:15.696Z,35.87
2022-11-30T00:28:45.214Z,28.67
2022-11-30T00:31:15.442Z,31.13
2022-11-30T00:33:43.051Z,35.10
2022-11-30T00:36:16.618Z,34.07
2022-11-30T00:38:44.038Z,30.83
2022-11-30T00:41:11.465Z,28.20
2022-11-30T00:43:38.432Z,29.33
2022-11-30T00:46:06.130Z,32.40
2022-11-30T00:48:33.895Z,30.07
2022-11-30T00:51:01.095Z,32.07
2022-11-30T00:53:27.990Z,28.83
2022-11-30T00:55:55.072Z,30.70
2022-11-30T00:58:22.000Z,27.90
2022-11-30T01:00:49.099Z,33.47
2022-11-30T01:03:16.157Z,33.47
2022-11-30T01:05:46.353Z,32.73
2022-11-30T01:08:14.074Z,29.80
2022-11-30T01:10:43.036Z,31.53
2022-11-30T01:13:12.787Z,27.20
2022-11-30T01:15:43.651Z,30.83
2022-11-30T01:18:11.318Z,33.13
2022-11-30T01:20:44.281Z,29.53
2022-11-30T01:23:11.782Z,32.33
2022-11-30T01:25:39.346Z,32.93
2022-11-30T01:28:06.352Z,32.50
2022-11-30T01:30:33.326Z,27.50
2022-11-30T01:33:04.814Z,31.77
2022-11-30T01:35:31.801Z,37.63
2022-11-30T01:37:58.675Z,34.97
2022-11-30T01:40:25.923Z,27.07
2022-11-30T01:42:52.805Z,31.93
2022-11-30T01:45:19.702Z,29.13
2022-11-30T01:47:55.048Z,31.93
2022-11-30T01:50:34.580Z,29.37
2022-11-30T01:53:03.460Z,36.60
2022-11-30T01:55:36.355Z,29.13
2022-11-30T01:58:15.619Z,29.70
2022-11-30T02:00:46.354Z,24.63
2022-11-30T02:03:28.112Z,32.87
2022-11-30T02:05:55.257Z,32.83
2022-11-30T02:08:22.909Z,33.17
2022-11-30T02:10:54.524Z,33.07
2022-11-30T02:13:54.838Z,29.90
2022-11-30T02:16:52.360Z,34.23
2022-11-30T02:19:56.805Z,27.77
2022-11-30T02:23:24.234Z,33.33
2022-11-30T02:26:24.186Z,35.40
2022-11-30T02:29:25.665Z,39.87
2022-11-30T02:32:04.906Z,29.30
2022-11-30T02:34:34.856Z,32.10
2022-11-30T02:37:03.553Z,36.63
2022-11-30T02:39:30.549Z,33.87
2022-11-30T02:41:57.439Z,31.93
2022-11-30T02:44:25.401Z,33.20
2022-11-30T02:47:12.427Z,30.53
2022-11-30T02:49:56.656Z,30.97
2022-11-30T02:52:27.803Z,28.83
2022-11-30T02:55:01.363Z,26.73
2022-11-30T02:57:28.234Z,23.20
2022-11-30T02:59:55.906Z,23.90
2022-11-30T03:02:22.868Z,27.17
2022-11-30T03:04:49.780Z,25.30
2022-11-30T03:07:16.804Z,31.40
2022-11-30T03:09:43.838Z,33.80
2022-11-30T03:12:10.753Z,31.50
2022-11-30T03:14:37.635Z,31.57
2022-11-30T03:17:05.665Z,28.30
2022-11-30T03:19:33.102Z,31.73
2022-11-30T03:22:00.412Z,29.23
2022-11-30T03:24:27.706Z,25.53
2022-11-30T03:26:54.591Z,29.00
2022-11-30T03:29:21.505Z,28.23
2022-11-30T03:31:48.390Z,27.83
2022-11-30T03:34:15.303Z,30.03
2022-11-30T03:36:42.177Z,28.13
2022-11-30T03:39:09.612Z,30.33
2022-11-30T03:41:36.552Z,29.40
2022-11-30T03:44:03.514Z,31.17
2022-11-30T03:46:30.600Z,26.67
2022-11-30T03:48:57.570Z,33.57
2022-11-30T03:51:24.446Z,28.37
2022-11-30T03:53:51.360Z,39.20
2022-11-30T03:56:18.352Z,26.77
2022-11-30T03:58:45.262Z,28.47
2022-11-30T04:01:16.949Z,27.67
2022-11-30T04:03:44.229Z,25.00
2022-11-30T04:06:12.808Z,30.80
2022-11-30T04:08:40.563Z,27.37
2022-11-30T04:11:08.312Z,26.93
2022-11-30T04:13:37.666Z,27.93
2022-11-30T04:16:05.936Z,31.03
2022-11-30T04:18:34.730Z,23.57
2022-11-30T04:21:02.072Z,23.27
2022-11-30T04:23:35.784Z,26.17
2022-11-30T04:26:04.892Z,26.37
2022-11-30T04:28:31.925Z,28.30
2022-11-30T04:31:00.888Z,29.07
2022-11-30T04:33:28.377Z,30.63
2022-11-30T04:35:59.151Z,29.27
2022-11-30T04:38:27.382Z,29.87
2022-11-30T04:40:55.113Z,31.43
2022-11-30T04:43:23.417Z,25.57
2022-11-30T04:45:50.898Z,26.20
2022-11-30T04:48:18.894Z,26.23
2022-11-30T04:50:46.058Z,26.40
2022-11-30T04:53:13.059Z,25.30
2022-11-30T04:55:40.004Z,31.63
2022-11-30T04:58:07.779Z,26.43
2022-11-30T05:00:35.806Z,25.87
2022-11-30T05:03:02.856Z,27.03
2022-11-30T05:05:29.941Z,27.73
2022-11-30T05:07:59.261Z,25.30
2022-11-30T05:10:27.866Z,27.43
2022-11-30T05:12:56.632Z,31.70
2022-11-30T05:15:23.540Z,34.13
2022-11-30T05:17:50.436Z,33.67
2022-11-30T05:20:17.551Z,36.20
2022-11-30T05:22:44.445Z,34.27
2022-11-30T05:25:11.507Z,36.93
2022-11-30T05:27:38.492Z,42.90
2022-11-30T05:30:06.314Z,33.47
2022-11-30T05:32:33.250Z,37.80
2022-11-30T05:35:00.471Z,34.00
2022-11-30T05:37:27.469Z,33.73
2022-11-30T05:39:54.343Z,31.40
2022-11-30T05:42:21.737Z,31.03
2022-11-30T05:44:48.875Z,33.90
2022-11-30T05:47:16.845Z,30.83
2022-11-30T05:49:43.813Z,27.77
2022-11-30T05:52:11.227Z,28.47
2022-11-30T05:54:38.127Z,29.57
2022-11-30T05:57:05.507Z,29.43
2022-11-30T05:59:32.546Z,29.10
2022-11-30T06:01:59.541Z,33.63
2022-11-30T06:04:26.615Z,31.57
2022-11-30T06:06:55.867Z,33.20
2022-11-30T06:09:23.420Z,36.53
2022-11-30T06:11:50.831Z,34.20
2022-11-30T06:14:18.210Z,33.80
2022-11-30T06:16:46.064Z,30.17
2022-11-30T06:19:13.033Z,29.03
2022-11-30T06:21:39.932Z,32.60
2022-11-30T06:24:07.384Z,32.97
2022-11-30T06:26:34.282Z,37.90
2022-11-30T06:29:01.175Z,53.33
2022-11-30T06:31:28.155Z,48.23
2022-11-30T06:33:59.296Z,46.17
2022-11-30T06:36:28.949Z,29.57
2022-11-30T06:39:01.210Z,27.20
2022-11-30T06:41:28.182Z,24.67
2022-11-30T06:43:55.096Z,37.20
2022-11-30T06:46:22.328Z,64.13
2022-11-30T06:48:50.848Z,51.33
2022-11-30T06:51:18.479Z,54.00
2022-11-30T06:53:45.832Z,37.73
2022-11-30T06:56:13.159Z,36.63
2022-11-30T06:58:41.259Z,35.43
2022-11-30T07:01:12.970Z,38.47
2022-11-30T07:03:41.819Z,35.20
2022-11-30T07:06:11.158Z,42.67
2022-11-30T07:08:38.771Z,45.47
2022-11-30T07:11:07.596Z,39.10
2022-11-30T07:13:34.587Z,38.97
2022-11-30T07:16:07.627Z,36.97
2022-11-30T07:18:34.970Z,28.27
2022-11-30T07:21:04.363Z,35.30
2022-11-30T07:23:55.853Z,35.97
2022-11-30T07:26:25.048Z,37.03
2022-11-30T07:28:58.259Z,37.43
2022-11-30T07:31:28.980Z,46.23
2022-11-30T07:33:58.214Z,55.67
2022-11-30T07:36:26.805Z,55.90
2022-11-30T07:38:53.700Z,54.10
2022-11-30T07:41:20.605Z,61.37
2022-11-30T07:43:47.504Z,64.87
2022-11-30T07:46:15.724Z,50.83
2022-11-30T07:48:44.334Z,39.50
2022-11-30T07:51:15.922Z,38.03
2022-11-30T07:53:43.363Z,37.03
2022-11-30T07:56:16.665Z,34.33
2022-11-30T07:58:43.904Z,34.27
2022-11-30T08:01:15.459Z,39.60
2022-11-30T08:03:42.534Z,34.47
2022-11-30T08:06:12.679Z,42.80
2022-11-30T08:08:43.203Z,40.00
2022-11-30T08:11:14.805Z,39.03
2022-11-30T08:13:42.553Z,40.03
2022-11-30T08:16:16.535Z,41.00
2022-11-30T08:18:44.054Z,38.80
2022-11-30T08:21:14.067Z,38.80
2022-11-30T08:23:44.684Z,33.80
2022-11-30T08:26:18.470Z,33.53
2022-11-30T08:28:47.577Z,33.63
2022-11-30T08:31:27.846Z,30.50
2022-11-30T08:33:57.524Z,28.57
2022-11-30T08:36:27.071Z,29.40
2022-11-30T08:38:54.340Z,32.67
2022-11-30T08:41:22.539Z,34.70
2022-11-30T08:43:50.277Z,29.27
2022-11-30T08:54:46.618Z,35.53
2022-11-30T08:57:19.584Z,40.43
2022-11-30T08:59:47.218Z,40.47
2022-11-30T09:02:17.932Z,47.93
2022-11-30T09:04:48.859Z,50.80
2022-11-30T09:07:16.111Z,45.67
2022-11-30T09:09:43.051Z,36.17
2022-11-30T09:12:09.906Z,38.17
2022-11-30T09:14:37.159Z,36.73
2022-11-30T09:17:04.185Z,35.23
2022-11-30T09:19:31.134Z,39.43
2022-11-30T09:21:58.056Z,34.03
2022-11-30T09:24:24.941Z,34.67
2022-11-30T09:26:55.750Z,40.50
2022-11-30T09:29:22.796Z,38.47
2022-11-30T09:31:49.708Z,39.40
2022-11-30T09:34:16.676Z,39.07
2022-11-30T09:36:43.575Z,30.87
2022-11-30T09:39:12.845Z,28.67
2022-11-30T09:42:10.941Z,34.97
2022-11-30T09:44:59.583Z,35.73
2022-11-30T09:48:12.108Z,34.10
2022-11-30T09:50:44.148Z,29.57
2022-11-30T09:53:38.696Z,30.53
2022-11-30T09:56:26.053Z,33.87
2022-11-30T09:59:21.128Z,38.03
2022-11-30T10:01:52.081Z,33.63
2022-11-30T10:04:29.387Z,32.27
2022-11-30T10:07:23.711Z,29.10
2022-11-30T10:10:33.319Z,31.97
2022-11-30T10:13:30.905Z,45.67
2022-11-30T10:16:25.748Z,47.03
2022-11-30T10:19:26.030Z,36.37
2022-11-30T10:22:27.787Z,100.50
2022-11-30T10:25:19.313Z,79.27
2022-11-30T10:28:12.717Z,80.23
2022-11-30T10:30:49.554Z,82.13
2022-11-30T10:33:19.971Z,59.70
2022-11-30T10:35:52.680Z,46.47
2022-11-30T10:38:27.965Z,43.40
2022-11-30T10:41:11.755Z,61.07
2022-11-30T10:43:48.267Z,38.50
2022-11-30T10:46:28.512Z,38.57
2022-11-30T10:49:04.172Z,29.47
2022-11-30T10:51:33.874Z,40.57
2022-11-30T10:54:01.506Z,35.37
2022-11-30T10:56:28.476Z,29.63
2022-11-30T10:59:10.775Z,31.93
2022-11-30T11:01:41.135Z,42.70
2022-11-30T11:04:16.446Z,24.93
2022-11-30T11:06:46.409Z,30.97
2022-11-30T11:09:46.931Z,29.77
2022-11-30T11:12:28.804Z,41.13
2022-11-30T11:15:17.845Z,33.37
2022-11-30T11:17:44.771Z,38.63
2022-11-30T11:20:35.915Z,42.43
2022-11-30T11:23:04.510Z,26.30
2022-11-30T11:25:37.402Z,36.57
2022-11-30T11:28:14.872Z,28.23
2022-11-30T11:30:42.259Z,43.60
2022-11-30T11:33:12.143Z,26.83
2022-11-30T11:35:40.486Z,38.80
2022-11-30T11:38:28.518Z,47.30
2022-11-30T11:41:03.221Z,45.77
2022-11-30T11:43:33.338Z,44.00
2022-11-30T11:46:13.206Z,37.83
2022-11-30T11:48:47.840Z,41.53
2022-11-30T11:51:15.051Z,44.37
2022-11-30T11:53:53.992Z,31.23
2022-11-30T11:56:28.798Z,27.40
2022-11-30T11:58:59.771Z,27.43
2022-11-30T12:02:03.240Z,33.97
2022-11-30T12:04:54.636Z,27.13
2022-11-30T12:07:33.182Z,37.77
2022-11-30T12:10:53.199Z,31.90
2022-11-30T12:13:23.923Z,26.17
2022-11-30T12:16:11.837Z,30.60
2022-11-30T12:18:59.345Z,40.37
2022-11-30T12:21:56.836Z,44.90
2022-11-30T12:25:18.631Z,40.77
2022-11-30T12:28:18.029Z,31.10
2022-11-30T12:31:10.681Z,32.73
2022-11-30T12:34:18.479Z,40.10
2022-11-30T12:37:17.719Z,30.20
2022-11-30T12:39:59.267Z,32.30
2022-11-30T12:42:54.515Z,33.57
2022-11-30T12:45:36.256Z,33.17
2022-11-30T12:48:48.229Z,31.60
2022-11-30T12:51:40.984Z,28.77
2022-11-30T12:54:36.101Z,31.37
2022-11-30T12:57:27.648Z,25.63
2022-11-30T13:00:21.653Z,28.17
2022-11-30T13:03:25.647Z,34.50
2022-11-30T13:06:00.807Z,35.97
2022-11-30T13:09:11.949Z,37.57
2022-11-30T13:11:43.255Z,39.73
2022-11-30T13:14:22.948Z,26.93
2022-11-30T13:17:00.579Z,34.63
2022-11-30T13:20:04.691Z,30.33
2022-11-30T13:22:46.537Z,34.53
2022-11-30T13:26:06.229Z,32.67
2022-11-30T13:28:35.029Z,29.30
2022-11-30T13:31:17.824Z,30.60
2022-11-30T13:33:50.029Z,31.70
2022-11-30T13:36:32.092Z,31.10
2022-11-30T13:39:27.124Z,36.00
2022-11-30T13:42:05.812Z,33.50
2022-11-30T13:44:41.309Z,38.93
2022-11-30T13:47:31.594Z,44.53
2022-11-30T13:50:05.392Z,46.30
2022-11-30T13:53:01.769Z,52.37
2022-11-30T13:55:59.840Z,59.73
2022-11-30T13:58:27.734Z,41.90
2022-11-30T14:01:03.759Z,51.57
2022-11-30T14:03:32.787Z,51.50
2022-11-30T14:06:04.810Z,58.77
2022-11-30T14:08:38.020Z,46.77
2022-11-30T14:11:36.800Z,40.90
2022-11-30T14:14:45.652Z,44.03
2022-11-30T14:17:23.918Z,45.93
2022-11-30T14:19:55.668Z,40.33
2022-11-30T14:22:23.510Z,36.20
2022-11-30T14:24:50.689Z,43.83
2022-11-30T14:27:25.062Z,44.70
2022-11-30T14:29:58.019Z,50.13
2022-11-30T14:32:42.211Z,47.57
2022-11-30T14:35:16.992Z,37.37
2022-11-30T14:37:55.564Z,39.90
2022-11-30T14:40:27.303Z,40.77
2022-11-30T14:42:58.284Z,45.77
2022-11-30T14:45:31.685Z,43.33
2022-11-30T14:48:14.409Z,36.60
2022-11-30T14:50:51.101Z,39.23
2022-11-30T14:53:54.052Z,33.80
2022-11-30T14:56:48.185Z,36.67
2022-11-30T14:59:30.020Z,40.73
2022-11-30T15:02:00.848Z,41.20
2022-11-30T15:04:29.403Z,41.90
2022-11-30T15:06:57.086Z,39.80
2022-11-30T15:09:32.414Z,40.07
2022-11-30T15:12:00.201Z,40.07
2022-11-30T15:14:27.213Z,50.20
2022-11-30T15:16:57.202Z,36.63
2022-11-30T15:19:31.205Z,48.13
2022-11-30T15:21:58.981Z,38.60
2022-11-30T15:24:28.243Z,42.47
2022-11-30T15:27:14.178Z,44.03
2022-11-30T15:29:58.834Z,37.43
2022-11-30T15:32:26.592Z,39.87
2022-11-30T15:34:57.638Z,45.07
2022-11-30T15:37:34.173Z,43.80
2022-11-30T15:40:05.314Z,40.37
2022-11-30T15:42:40.008Z,40.03
2022-11-30T15:45:27.836Z,37.70
2022-11-30T15:47:56.739Z,41.80
2022-11-30T15:50:26.535Z,50.77
2022-11-30T15:52:59.144Z,41.90
2022-11-30T15:55:45.278Z,44.43
2022-11-30T15:58:45.648Z,42.90
2022-11-30T16:01:24.654Z,46.23
2022-11-30T16:04:07.963Z,45.10
2022-11-30T16:06:47.205Z,41.83
2022-11-30T16:09:24.537Z,48.03
2022-11-30T16:11:57.248Z,44.23
2022-11-30T16:14:24.460Z,48.77
2022-11-30T16:16:53.793Z,40.03
2022-11-30T16:19:21.197Z,35.50
2022-11-30T16:21:49.695Z,40.80
2022-11-30T16:24:16.904Z,33.17
2022-11-30T16:26:52.284Z,36.33
2022-11-30T16:29:20.168Z,42.27
2022-11-30T16:31:47.270Z,40.27
2022-11-30T16:34:14.312Z,36.10
2022-11-30T16:36:41.210Z,41.50
2022-11-30T16:39:12.490Z,48.57
2022-11-30T16:41:39.637Z,38.07
2022-11-30T16:44:13.831Z,32.63
2022-11-30T16:46:40.748Z,33.27
2022-11-30T16:49:07.625Z,42.57
2022-11-30T16:51:34.801Z,43.20
2022-11-30T16:54:01.910Z,44.23
2022-11-30T16:56:28.990Z,46.77
2022-11-30T16:58:55.906Z,41.60
2022-11-30T17:01:35.761Z,38.50
2022-11-30T17:04:12.969Z,40.67
2022-11-30T17:06:39.863Z,41.93
2022-11-30T17:09:13.524Z,45.83
2022-11-30T17:11:41.311Z,47.30
2022-11-30T17:14:10.839Z,51.17
2022-11-30T17:16:37.776Z,44.03
2022-11-30T17:19:05.002Z,51.77
2022-11-30T17:21:35.891Z,53.60
2022-11-30T17:24:03.321Z,34.13
2022-11-30T17:26:30.235Z,30.23
2022-11-30T17:28:57.169Z,31.27
2022-11-30T17:31:24.699Z,38.33
2022-11-30T17:33:52.846Z,35.93
2022-11-30T17:36:19.824Z,33.70
2022-11-30T17:38:46.878Z,33.00
2022-11-30T17:41:19.241Z,32.90
2022-11-30T17:43:47.728Z,30.23
2022-11-30T17:46:17.934Z,38.70
2022-11-30T17:48:45.401Z,35.60
2022-11-30T17:51:13.035Z,33.77
2022-11-30T17:53:41.485Z,28.60
2022-11-30T17:56:15.042Z,34.17
2022-11-30T17:58:44.640Z,29.13
2022-11-30T18:01:23.640Z,36.53
2022-11-30T18:03:51.446Z,30.47
2022-11-30T18:06:19.182Z,31.37
2022-11-30T18:08:46.504Z,30.77
2022-11-30T18:11:20.512Z,23.30
2022-11-30T18:13:50.086Z,26.67
2022-11-30T18:16:24.640Z,33.60
2022-11-30T18:18:52.204Z,37.33
2022-11-30T18:21:21.957Z,32.73
2022-11-30T18:23:49.890Z,35.00
2022-11-30T18:26:20.822Z,30.50
2022-11-30T18:28:59.345Z,33.60
2022-11-30T18:31:28.102Z,32.37
2022-11-30T18:34:00.086Z,29.23
2022-11-30T18:36:27.974Z,30.70
2022-11-30T18:38:55.467Z,27.40
2022-11-30T18:41:24.188Z,26.87
2022-11-30T18:43:51.082Z,26.80
2022-11-30T18:46:18.007Z,35.27
2022-11-30T18:48:50.272Z,30.63
2022-11-30T18:51:27.243Z,30.63
2022-11-30T18:54:00.407Z,25.50
2022-11-30T18:56:31.735Z,29.60
2022-11-30T18:59:02.743Z,31.70
2022-11-30T19:01:30.741Z,36.30
2022-11-30T19:04:02.403Z,32.13
2022-11-30T19:06:32.729Z,31.00
2022-11-30T19:09:09.242Z,28.83
2022-11-30T19:11:37.934Z,31.73
2022-11-30T19:14:05.437Z,25.70
2022-11-30T19:16:36.941Z,31.37
2022-11-30T19:19:08.397Z,27.00
2022-11-30T19:21:35.576Z,24.10
2022-11-30T19:24:02.613Z,32.40
2022-11-30T19:26:29.706Z,30.43
2022-11-30T19:28:57.890Z,32.97
2022-11-30T19:31:25.414Z,29.00
2022-11-30T19:33:55.073Z,32.80
2022-11-30T19:36:26.730Z,28.93
2022-11-30T19:38:54.389Z,32.60
2022-11-30T19:41:22.179Z,33.47
2022-11-30T19:44:01.046Z,26.33
2022-11-30T19:46:31.795Z,27.73
2022-11-30T19:49:01.352Z,31.30
2022-11-30T19:51:30.644Z,39.93
2022-11-30T19:53:59.334Z,35.47
2022-11-30T19:56:28.936Z,37.73
2022-11-30T19:59:03.776Z,40.83
2022-11-30T20:01:32.080Z,35.13
2022-11-30T20:03:59.331Z,25.37
2022-11-30T20:06:37.741Z,28.57
2022-11-30T20:09:07.524Z,32.60
2022-11-30T20:11:34.739Z,36.07
2022-11-30T20:14:01.836Z,33.67
2022-11-30T20:16:29.349Z,31.97
2022-11-30T20:19:01.876Z,36.17
2022-11-30T20:21:35.132Z,32.70
2022-11-30T20:24:07.140Z,31.83
2022-11-30T20:26:40.760Z,29.33
2022-11-30T20:29:12.684Z,25.33
2022-11-30T20:31:40.564Z,34.67
2022-11-30T20:34:08.376Z,38.73
2022-11-30T20:36:35.713Z,41.57
2022-11-30T20:39:03.010Z,43.80
2022-11-30T20:41:29.921Z,34.30
2022-11-30T20:43:57.111Z,29.60
2022-11-30T20:46:42.332Z,26.67
2022-11-30T20:49:17.673Z,31.97
2022-11-30T20:51:45.694Z,35.13
2022-11-30T20:54:12.977Z,34.17
2022-11-30T20:56:40.772Z,33.67
2022-11-30T20:59:15.058Z,28.73
2022-11-30T21:01:44.452Z,26.67
2022-11-30T21:04:11.708Z,23.90
2022-11-30T21:06:38.845Z,27.00
2022-11-30T21:09:05.723Z,27.43
2022-11-30T21:11:32.599Z,22.83
2022-11-30T21:13:59.623Z,24.70
2022-11-30T21:16:29.649Z,32.63
2022-11-30T21:19:01.054Z,25.73
2022-11-30T21:21:31.761Z,22.77
2022-11-30T21:24:01.495Z,25.40
2022-11-30T21:26:37.940Z,27.40
2022-11-30T21:29:11.717Z,28.07
2022-11-30T21:31:38.920Z,33.60
2022-11-30T21:34:06.081Z,29.97
2022-11-30T21:36:33.234Z,21.83
2022-11-30T21:39:06.831Z,21.83
2022-11-30T21:41:36.644Z,23.37
2022-11-30T21:44:06.608Z,22.40
2022-11-30T21:46:33.915Z,24.07
2022-11-30T21:49:01.325Z,25.23
2022-11-30T21:51:29.814Z,23.47
2022-11-30T21:54:00.241Z,27.70
2022-11-30T21:56:30.583Z,22.70
2022-11-30T21:58:58.150Z,20.97
2022-11-30T22:01:31.750Z,20.20
2022-11-30T22:03:59.963Z,21.60
2022-11-30T22:06:29.044Z,22.17
2022-11-30T22:09:03.669Z,28.07
2022-11-30T22:11:31.417Z,24.43
2022-11-30T22:13:58.473Z,23.67
2022-11-30T22:16:34.025Z,24.37
2022-11-30T22:19:03.596Z,25.50
2022-11-30T22:21:31.051Z,25.47
2022-11-30T22:24:00.791Z,20.30
2022-11-30T22:26:31.486Z,25.67
2022-11-30T22:29:02.067Z,19.87
2022-11-30T22:31:32.775Z,24.40
2022-11-30T22:34:00.449Z,27.67
2022-11-30T22:36:30.258Z,21.47
2022-11-30T22:39:00.798Z,27.27
2022-11-30T22:41:28.758Z,28.40
2022-11-30T22:43:57.717Z,27.20
2022-11-30T22:46:31.126Z,22.03
2022-11-30T22:49:04.457Z,22.80
2022-11-30T22:51:33.684Z,25.20
2022-11-30T22:54:01.457Z,22.83
2022-11-30T22:56:35.548Z,26.50
2022-11-30T22:59:03.728Z,28.60
2022-11-30T23:01:38.112Z,29.23
2022-11-30T23:04:14.421Z,28.57
2022-11-30T23:06:43.063Z,28.07
2022-11-30T23:09:16.125Z,26.80
2022-11-30T23:11:43.291Z,35.07
2022-11-30T23:14:12.109Z,24.03
2022-11-30T23:16:39.996Z,25.43
2022-11-30T23:19:07.083Z,26.37
2022-11-30T23:21:41.490Z,27.10
2022-11-30T23:24:15.164Z,25.60
2022-11-30T23:26:42.861Z,21.93
2022-11-30T23:29:13.865Z,23.10
2022-11-30T23:31:42.630Z,24.87
2022-11-30T23:34:16.749Z,24.23
2022-11-30T23:36:43.818Z,23.10
2022-11-30T23:39:14.818Z,29.50
2022-11-30T23:41:42.033Z,25.60
2022-11-30T23:44:10.409Z,23.50
2022-11-30T23:46:37.789Z,22.03
2022-11-30T23:49:05.099Z,27.97
2022-11-30T23:51:32.031Z,27.87
2022-11-30T23:53:58.950Z,29.23
2022-11-30T23:56:25.941Z,27.30
2022-11-30T23:58:52.978Z,27.20
